Map

Track Data

SID SEASON NUMBER BASIN SUBBASIN NAME ISO_TIME NATURE LAT LON WMO_WIND WMO_PRES WMO_AGENCY TRACK_TYPE DIST2LAND LANDFALL IFLAG USA_AGENCY USA_ATCF_ID USA_LAT USA_LON USA_RECORD USA_STATUS USA_WIND USA_PRES USA_SSHS USA_R34_NE USA_R34_SE USA_R34_SW USA_R34_NW USA_R50_NE USA_R50_SE USA_R50_SW USA_R50_NW USA_R64_NE USA_R64_SE USA_R64_SW USA_R64_NW USA_POCI USA_ROCI USA_RMW USA_EYE TOKYO_LAT TOKYO_LON TOKYO_GRADE TOKYO_WIND TOKYO_PRES TOKYO_R50_DIR TOKYO_R50_LONG TOKYO_R50_SHORT TOKYO_R30_DIR TOKYO_R30_LONG TOKYO_R30_SHORT TOKYO_LAND CMA_LAT CMA_LON CMA_CAT CMA_WIND CMA_PRES HKO_LAT HKO_LON HKO_CAT HKO_WIND HKO_PRES NEWDELHI_LAT NEWDELHI_LON NEWDELHI_GRADE NEWDELHI_WIND NEWDELHI_PRES NEWDELHI_CI NEWDELHI_DP NEWDELHI_POCI REUNION_LAT REUNION_LON REUNION_TYPE REUNION_WIND REUNION_PRES REUNION_TNUM REUNION_CI REUNION_RMW REUNION_R34_NE REUNION_R34_SE REUNION_R34_SW REUNION_R34_NW REUNION_R50_NE REUNION_R50_SE REUNION_R50_SW REUNION_R50_NW REUNION_R64_NE REUNION_R64_SE REUNION_R64_SW REUNION_R64_NW BOM_LAT BOM_LON BOM_TYPE BOM_WIND BOM_PRES BOM_TNUM BOM_CI BOM_RMW BOM_R34_NE BOM_R34_SE BOM_R34_SW BOM_R34_NW BOM_R50_NE BOM_R50_SE BOM_R50_SW BOM_R50_NW BOM_R64_NE BOM_R64_SE BOM_R64_SW BOM_R64_NW BOM_ROCI BOM_POCI BOM_EYE BOM_POS_METHOD BOM_PRES_METHOD NADI_LAT NADI_LON NADI_CAT NADI_WIND NADI_PRES WELLINGTON_LAT WELLINGTON_LON WELLINGTON_WIND WELLINGTON_PRES DS824_LAT DS824_LON DS824_STAGE DS824_WIND DS824_PRES TD9636_LAT TD9636_LON TD9636_STAGE TD9636_WIND TD9636_PRES TD9635_LAT TD9635_LON TD9635_WIND TD9635_PRES TD9635_ROCI NEUMANN_LAT NEUMANN_LON NEUMANN_CLASS NEUMANN_WIND NEUMANN_PRES MLC_LAT MLC_LON MLC_CLASS MLC_WIND MLC_PRES USA_GUST BOM_GUST BOM_GUST_PER REUNION_GUST REUNION_GUST_PER USA_SEAHGT USA_SEARAD_NE USA_SEARAD_SE USA_SEARAD_SW USA_SEARAD_NW STORM_SPEED STORM_DIR
1977040S14161 1977 17 SP MM NOT_NAMED 1977-02-09 00:00:00 TS -14.0000 160.500 spur-merge 385 385 O________OO___ jtwc_sh SH161977 -14.0000 160.500 35 0 -14.0000 160.500 TC 35 -14.0000 160.500 1 3 223
1977040S14161 1977 17 SP MM NOT_NAMED 1977-02-09 03:00:00 TS -14.1000 160.399 spur-merge 399 399 P________PP___ SH161977 -14.0875 160.390 37 0 -14.0875 160.390 TC 37 -14.1250 160.417 1 3 220
1977040S14161 1977 17 SP MM NOT_NAMED 1977-02-09 06:00:00 TS -14.2167 160.313 spur-merge 414 414 O________OP___ jtwc_sh SH161977 -14.2000 160.300 40 0 -14.2000 160.300 TC 40 -14.2500 160.338 1 3 209
1977040S14161 1977 17 SP MM NOT_NAMED 1977-02-09 09:00:00 TS -14.3583 160.250 spur-merge 438 438 P________PP___ SH161977 -14.3500 160.242 40 0 -14.3500 160.242 TC 40 -14.3750 160.264 1 3 201
1977040S14161 1977 17 SP MM NOT_NAMED 1977-02-09 12:00:00 TS -14.5000 160.200 spur-merge 449 449 O________OO___ jtwc_sh SH161977 -14.5000 160.200 40 0 -14.5000 160.200 TC 40 -14.5000 160.200 1 3 201
1977040S14161 1977 17 SP MM NOT_NAMED 1977-02-09 15:00:00 TS -14.6083 160.149 spur-merge 463 463 P________PP___ SH161977 -14.6000 160.150 42 0 -14.6000 160.150 TC 42 -14.6250 160.147 1 2 203
1977040S14161 1977 17 SP MM NOT_NAMED 1977-02-09 17:00:00 TS -14.6785 160.116 spur-merge 474 474 P________PP___ SH161977 -14.6636 160.117 44 0 -14.6636 160.117 TC 44 -14.7083 160.115 1 2 195
1977040S14161 1977 17 SP MM NOT_NAMED 1977-02-09 18:00:00 TS -14.7167 160.100 spur-merge 474 474 O________OP___ jtwc_sh SH161977 -14.7000 160.100 45 0 -14.7000 160.100 TC 45 -14.7500 160.100 1 3 202
1977040S14161 1977 17 SP MM NOT_NAMED 1977-02-09 21:00:00 TS -14.8583 160.051 spur-merge 494 494 P________PP___ SH161977 -14.8500 160.050 45 0 -14.8500 160.050 TC 45 -14.8750 160.053 1 3 198
1977040S14161 1977 17 SP MM NOT_NAMED 1977-02-09 23:00:00 TS -14.9548 160.017 spur-merge 509 509 P________PP___ SH161977 -14.9531 160.017 45 0 -14.9531 160.017 TC 45 -14.9583 160.019 1 3 202
1977040S14161 1977 17 SP MM NOT_NAMED 1977-02-10 00:00:00 TS -15.0000 160.000 spur-merge 509 509 O________OO___ jtwc_sh SH161977 -15.0000 160.000 45 0 -15.0000 160.000 TC 45 -15.0000 160.000 2 35 3 204
1977040S14161 1977 17 SP EA NOT_NAMED 1977-02-10 03:00:00 TS -15.1083 159.950 spur-merge 519 519 P________PP___ SH161977 -15.1000 159.957 45 0 -15.1000 159.957 TC 45 -15.1250 159.936 2 2 206
1977040S14161 1977 17 SP EA NOT_NAMED 1977-02-10 05:00:00 TS -15.1785 159.911 spur-merge 533 533 P________PP___ SH161977 -15.1636 159.922 45 0 -15.1636 159.922 TC 45 -15.2083 159.890 2 2 204
1977040S14161 1977 17 SP EA NOT_NAMED 1977-02-10 06:00:00 TS -15.2167 159.888 spur-merge 533 533 O________OP___ jtwc_sh SH161977 -15.2000 159.900 45 0 -15.2000 159.900 TC 45 -15.2500 159.865 2 3 211
1977040S14161 1977 17 SP EA NOT_NAMED 1977-02-10 09:00:00 TS -15.3583 159.800 spur-merge 558 558 P________PP___ SH161977 -15.3500 159.808 45 0 -15.3500 159.808 TC 45 -15.3750 159.786 2 3 212
1977040S14161 1977 17 SP EA NOT_NAMED 1977-02-10 11:00:00 TS -15.4548 159.734 spur-merge 573 573 P________PP___ SH161977 -15.4531 159.736 45 0 -15.4531 159.736 TC 45 -15.4583 159.730 2 3 215
1977040S14161 1977 17 SP EA NOT_NAMED 1977-02-10 12:00:00 TS -15.5000 159.700 spur-merge 573 573 O________OO___ jtwc_sh SH161977 -15.5000 159.700 45 0 -15.5000 159.700 TC 45 -15.5000 159.700 2 3 219
1977040S14161 1977 17 SP EA NOT_NAMED 1977-02-10 15:00:00 TS -15.6083 159.601 spur-merge 587 587 P________PP___ SH161977 -15.6000 159.600 45 0 -15.6000 159.600 TC 45 -15.6250 159.607 2 3 221
1977040S14161 1977 17 SP EA NOT_NAMED 1977-02-10 17:00:00 TS -15.6785 159.534 spur-merge 602 602 P________PP___ SH161977 -15.6636 159.533 45 0 -15.6636 159.533 TC 45 -15.7084 159.541 2 3 221
1977040S14161 1977 17 SP EA NOT_NAMED 1977-02-10 18:00:00 TS -15.7167 159.500 spur-merge 602 602 O________OP___ jtwc_sh SH161977 -15.7000 159.500 45 0 -15.7000 159.500 TC 45 -15.7500 159.508 2 3 218
1977040S14161 1977 17 SP EA NOT_NAMED 1977-02-10 21:00:00 TS -15.8583 159.394 spur-merge 627 627 P________PP___ SH161977 -15.8375 159.400 45 0 -15.8375 159.400 TC 45 -15.8750 159.405 2 3 214
1977040S14161 1977 17 SP EA NOT_NAMED 1977-02-10 23:00:00 TS -15.9550 159.329 spur-merge 641 641 P________PP___ SH161977 -15.9446 159.333 45 0 -15.9446 159.333 TC 45 -15.9584 159.335 2 3 212
1977040S14161 1977 17 SP EA NOT_NAMED 1977-02-11 00:00:00 TS -16.0000 159.300 spur-merge 641 641 O________OO___ jtwc_sh SH161977 -16.0000 159.300 45 0 -16.0000 159.300 TC 45 -16.0000 159.300 2 45 3 208
1977040S14161 1977 17 SP EA NOT_NAMED 1977-02-11 03:00:00 TS -16.1181 159.240 spur-merge 656 656 ______________ SH161977 -1 TC 2 3 205
1977040S14161 1977 17 SP EA NOT_NAMED 1977-02-11 05:00:00 NR -16.2025 159.200 spur-merge 666 ______________ SH161977 -1 TC 2 3 209

Digital Typhoon Data and Search

About IBTrACS Database

This database is a web-friendly format of International Best Track Archive for Climate Stewardship (IBTrACS), a global best track data archive curated by NOAA dating back to 1842.

Updated: 2021-12-03